createdAt,value
2022-08-28T00:00:25.770Z,11.90
2022-08-28T00:02:53.825Z,11.10
2022-08-28T00:05:23.601Z,11.30
2022-08-28T00:07:50.721Z,10.70
2022-08-28T00:10:20.584Z,11.50
2022-08-28T00:12:50.446Z,11.90
2022-08-28T00:15:24.163Z,11.40
2022-08-28T00:17:50.925Z,11.20
2022-08-28T00:20:20.702Z,11.30
2022-08-28T00:22:49.728Z,10.70
2022-08-28T00:25:20.324Z,10.30
2022-08-28T00:27:52.429Z,11.50
2022-08-28T00:30:46.630Z,10.10
2022-08-28T00:33:25.811Z,9.70
2022-08-28T00:35:52.599Z,10.90
2022-08-28T00:38:21.477Z,11.30
2022-08-28T00:40:53.471Z,11.00
2022-08-28T00:43:45.670Z,10.10
2022-08-28T00:46:22.539Z,10.70
2022-08-28T00:48:49.924Z,10.60
2022-08-28T00:51:38.336Z,10.80
2022-08-28T00:54:08.256Z,11.40
2022-08-28T00:56:38.488Z,10.40
2022-08-28T00:59:11.521Z,9.90
2022-08-28T01:01:39.204Z,10.90
2022-08-28T01:04:06.524Z,10.50
2022-08-28T01:06:36.074Z,11.50
2022-08-28T01:09:04.733Z,10.60
2022-08-28T01:11:32.432Z,11.10
2022-08-28T01:14:03.047Z,10.20
2022-08-28T01:16:33.170Z,10.60
2022-08-28T01:19:03.986Z,10.20
2022-08-28T01:21:50.765Z,10.40
2022-08-28T01:24:19.700Z,9.40
2022-08-28T01:26:47.258Z,10.40
2022-08-28T01:29:14.497Z,9.80
2022-08-28T01:31:41.946Z,11.10
2022-08-28T01:34:12.409Z,10.00
2022-08-28T01:36:39.716Z,9.70
2022-08-28T01:39:15.203Z,10.30
2022-08-28T01:41:46.739Z,10.00
2022-08-28T01:44:17.914Z,9.60
2022-08-28T01:46:46.606Z,9.20
2022-08-28T01:49:13.627Z,10.20
2022-08-28T01:51:41.947Z,10.10
2022-08-28T01:54:09.980Z,9.90
2022-08-28T01:56:39.932Z,11.20
2022-08-28T01:59:10.652Z,10.40
2022-08-28T02:01:38.310Z,10.40
2022-08-28T02:04:05.975Z,10.80
2022-08-28T02:06:33.953Z,10.90
2022-08-28T02:09:00.973Z,10.70
2022-08-28T02:11:33.104Z,10.80
2022-08-28T02:14:00.798Z,9.80
2022-08-28T02:16:28.159Z,10.20
2022-08-28T02:18:54.655Z,10.20
2022-08-28T02:21:21.383Z,9.90
2022-08-28T02:23:48.011Z,9.70
2022-08-28T02:26:16.350Z,9.30
2022-08-28T02:28:43.383Z,9.80
2022-08-28T02:31:11.531Z,9.40
2022-08-28T02:33:41.141Z,10.40
2022-08-28T02:36:10.777Z,10.90
2022-08-28T02:38:38.693Z,10.20
2022-08-28T02:41:06.807Z,9.30
2022-08-28T02:43:33.567Z,10.70
2022-08-28T02:46:00.435Z,10.00
2022-08-28T02:48:32.619Z,9.80
2022-08-28T02:51:02.780Z,9.60
2022-08-28T02:53:31.119Z,9.70
2022-08-28T02:55:59.309Z,9.80
2022-08-28T02:58:27.286Z,9.60
2022-08-28T03:00:54.772Z,10.50
2022-08-28T03:03:21.383Z,9.60
2022-08-28T03:05:47.902Z,9.60
2022-08-28T03:08:14.570Z,9.40
2022-08-28T03:10:42.041Z,9.90
2022-08-28T03:13:08.680Z,9.80
2022-08-28T03:15:35.333Z,8.90
2022-08-28T03:18:01.832Z,9.00
2022-08-28T03:20:34.509Z,10.00
2022-08-28T03:23:19.527Z,10.40
2022-08-28T03:25:46.416Z,10.10
2022-08-28T03:28:13.205Z,10.30
2022-08-28T03:30:40.034Z,9.50
2022-08-28T03:33:06.752Z,9.30
2022-08-28T03:35:33.971Z,8.90
2022-08-28T03:38:00.492Z,8.80
2022-08-28T03:40:27.184Z,9.00
2022-08-28T03:42:53.889Z,8.60
2022-08-28T03:45:21.073Z,8.50
2022-08-28T03:47:47.570Z,8.90
2022-08-28T03:50:14.838Z,8.60
2022-08-28T03:52:41.736Z,8.10
2022-08-28T03:55:12.362Z,8.20
2022-08-28T03:57:39.971Z,8.20
2022-08-28T04:00:12.480Z,7.60
2022-08-28T04:02:42.294Z,8.10
2022-08-28T04:05:11.090Z,7.90
2022-08-28T04:07:38.087Z,7.60
2022-08-28T04:10:06.329Z,8.10
2022-08-28T04:12:35.435Z,7.70
2022-08-28T04:15:02.659Z,6.70
2022-08-28T04:17:29.147Z,7.70
2022-08-28T04:19:56.363Z,7.40
2022-08-28T04:22:23.629Z,7.50
2022-08-28T04:24:50.480Z,8.00
2022-08-28T04:27:16.960Z,7.30
2022-08-28T04:29:43.564Z,7.50
2022-08-28T04:32:10.181Z,7.50
2022-08-28T04:34:38.421Z,7.10
2022-08-28T04:37:05.521Z,6.40
2022-08-28T04:39:33.868Z,7.40
2022-08-28T04:42:01.006Z,8.50
2022-08-28T04:44:27.667Z,8.30
2022-08-28T04:46:54.440Z,7.40
2022-08-28T04:49:23.045Z,7.50
2022-08-28T04:51:52.751Z,7.00
2022-08-28T04:54:20.133Z,7.40
2022-08-28T04:56:46.860Z,6.80
2022-08-28T04:59:13.697Z,7.00
2022-08-28T05:01:42.663Z,7.00
2022-08-28T05:04:11.688Z,6.70
2022-08-28T05:06:43.455Z,6.00
2022-08-28T05:09:10.054Z,6.20
2022-08-28T05:11:36.746Z,6.20
2022-08-28T05:14:09.624Z,6.00
2022-08-28T05:16:46.257Z,6.40
2022-08-28T05:19:14.200Z,5.80
2022-08-28T05:21:40.831Z,5.90
2022-08-28T05:24:08.336Z,5.30
2022-08-28T05:26:38.951Z,6.10
2022-08-28T05:29:07.969Z,6.20
2022-08-28T05:31:35.507Z,6.10
2022-08-28T05:34:04.520Z,5.70
2022-08-28T05:36:37.339Z,6.40
2022-08-28T05:39:08.682Z,6.00
2022-08-28T05:41:35.783Z,5.80
2022-08-28T05:44:08.080Z,6.30
2022-08-28T05:46:39.644Z,5.40
2022-08-28T05:49:10.250Z,6.10
2022-08-28T05:51:41.489Z,5.70
2022-08-28T05:54:09.013Z,6.00
2022-08-28T05:56:39.189Z,6.40
2022-08-28T05:59:07.937Z,5.50
2022-08-28T06:01:48.763Z,6.50
2022-08-28T06:04:25.539Z,6.10
2022-08-28T06:06:52.863Z,6.20
2022-08-28T06:09:29.608Z,6.40
2022-08-28T06:12:00.889Z,6.30
2022-08-28T06:14:29.719Z,6.40
2022-08-28T06:16:57.526Z,7.50
2022-08-28T06:19:27.921Z,6.30
2022-08-28T06:21:58.268Z,6.60
2022-08-28T06:24:27.973Z,7.00
2022-08-28T06:26:58.517Z,6.70
2022-08-28T06:29:27.550Z,7.30
2022-08-28T06:31:58.447Z,6.90
2022-08-28T06:34:26.057Z,6.80
2022-08-28T06:36:54.120Z,7.60
2022-08-28T06:39:22.015Z,7.20
2022-08-28T06:41:48.943Z,7.20
2022-08-28T06:44:19.941Z,6.70
2022-08-28T06:46:53.740Z,7.50
2022-08-28T06:49:21.415Z,7.70
2022-08-28T06:51:48.705Z,7.80
2022-08-28T06:54:22.158Z,7.60
2022-08-28T06:56:51.221Z,8.90
2022-08-28T06:59:18.015Z,7.80
2022-08-28T07:01:45.331Z,8.50
2022-08-28T07:04:14.564Z,8.10
2022-08-28T07:06:47.067Z,8.10
2022-08-28T07:09:14.295Z,7.40
2022-08-28T07:11:44.837Z,7.40
2022-08-28T07:14:11.487Z,7.30
2022-08-28T07:16:39.502Z,7.20
2022-08-28T07:19:08.469Z,6.90
2022-08-28T07:21:41.617Z,6.90
2022-08-28T07:24:13.339Z,7.80
2022-08-28T07:26:43.395Z,7.60
2022-08-28T07:29:11.728Z,7.90
2022-08-28T07:31:46.455Z,7.90
2022-08-28T07:34:14.341Z,7.80
2022-08-28T07:36:42.071Z,7.90
2022-08-28T07:39:11.134Z,7.60
2022-08-28T07:41:42.468Z,6.90
2022-08-28T07:44:31.000Z,7.10
2022-08-28T07:47:03.948Z,7.00
2022-08-28T07:49:33.782Z,7.80
2022-08-28T07:52:01.108Z,7.60
2022-08-28T07:54:27.824Z,7.30
2022-08-28T07:56:58.749Z,7.80
2022-08-28T07:59:25.376Z,7.70
2022-08-28T08:01:52.687Z,6.90
2022-08-28T08:04:21.982Z,6.90
2022-08-28T08:06:53.397Z,7.70
2022-08-28T08:09:23.975Z,7.10
2022-08-28T08:11:50.669Z,7.50
2022-08-28T08:14:17.853Z,7.90
2022-08-28T08:16:47.525Z,7.70
2022-08-28T08:19:17.141Z,7.80
2022-08-28T08:21:48.324Z,7.10
2022-08-28T08:24:26.099Z,6.70
2022-08-28T08:26:59.488Z,6.80
2022-08-28T08:29:36.092Z,6.90
2022-08-28T08:32:10.256Z,7.40
2022-08-28T08:34:45.893Z,7.00
2022-08-28T08:37:13.370Z,6.60
2022-08-28T08:39:42.850Z,6.50
2022-08-28T08:42:24.216Z,6.80
2022-08-28T08:44:53.978Z,7.60
2022-08-28T08:47:47.565Z,6.80
2022-08-28T08:50:27.320Z,7.40
2022-08-28T08:53:23.094Z,7.50
2022-08-28T08:55:54.492Z,8.30
2022-08-28T08:58:31.683Z,7.30
2022-08-28T09:01:05.326Z,7.40
2022-08-28T09:03:59.611Z,7.10
2022-08-28T09:06:39.895Z,7.00
2022-08-28T09:09:20.844Z,6.40
2022-08-28T09:12:04.823Z,7.10
2022-08-28T09:15:08.846Z,6.70
2022-08-28T09:17:52.977Z,7.20
2022-08-28T09:20:33.255Z,7.40
2022-08-28T09:23:00.305Z,6.90
2022-08-28T09:25:50.971Z,7.00
2022-08-28T09:28:29.528Z,8.20
2022-08-28T09:31:09.026Z,8.60
2022-08-28T09:33:45.607Z,8.20
2022-08-28T09:36:38.658Z,9.40
2022-08-28T09:39:32.521Z,8.30
2022-08-28T09:42:32.989Z,8.50
2022-08-28T09:45:09.139Z,8.70
2022-08-28T09:47:49.872Z,8.90
2022-08-28T09:50:33.889Z,8.70
2022-08-28T09:53:19.262Z,8.80
2022-08-28T09:55:55.537Z,8.60
2022-08-28T09:58:38.064Z,8.90
2022-08-28T10:01:41.263Z,8.60
2022-08-28T10:04:29.870Z,9.40
2022-08-28T10:07:12.653Z,8.60
2022-08-28T10:10:17.808Z,8.90
2022-08-28T10:13:09.639Z,9.20
2022-08-28T10:16:11.724Z,8.60
2022-08-28T10:19:19.293Z,9.00
2022-08-28T10:22:05.073Z,8.00
2022-08-28T10:24:57.776Z,8.20
2022-08-28T10:27:31.649Z,7.60
2022-08-28T10:30:13.632Z,7.20
2022-08-28T10:32:51.387Z,8.20
2022-08-28T10:35:31.104Z,9.00
2022-08-28T10:38:12.669Z,8.30
2022-08-28T10:40:59.007Z,8.80
2022-08-28T10:43:48.120Z,8.50
2022-08-28T10:46:27.019Z,8.40
2022-08-28T10:49:05.583Z,8.10
2022-08-28T10:51:35.818Z,8.80
2022-08-28T10:54:41.065Z,8.40
2022-08-28T10:57:39.526Z,8.30
2022-08-28T11:00:16.834Z,8.70
2022-08-28T11:02:58.382Z,8.10
2022-08-28T11:05:39.469Z,8.90
2022-08-28T11:08:19.291Z,8.30
2022-08-28T11:10:52.999Z,7.70
2022-08-28T11:13:45.136Z,7.90
2022-08-28T11:16:21.297Z,9.10
2022-08-28T11:19:12.377Z,7.90
2022-08-28T11:21:54.992Z,8.30
2022-08-28T11:24:44.128Z,7.40
2022-08-28T11:27:34.712Z,6.50
2022-08-28T11:30:09.143Z,5.80
2022-08-28T11:32:56.507Z,5.30
2022-08-28T11:35:48.336Z,5.30
2022-08-28T11:38:42.663Z,5.40
2022-08-28T11:41:27.341Z,6.50
2022-08-28T11:44:24.361Z,5.50
2022-08-28T11:46:55.383Z,5.80
2022-08-28T11:49:28.661Z,5.80
2022-08-28T11:52:22.818Z,6.30
2022-08-28T11:55:47.930Z,6.10
2022-08-28T11:58:42.752Z,7.90
2022-08-28T12:01:14.133Z,8.50
2022-08-28T12:03:53.581Z,8.00
2022-08-28T12:06:52.492Z,7.70
2022-08-28T12:09:47.946Z,7.90
2022-08-28T12:12:23.187Z,7.70
2022-08-28T12:14:55.687Z,7.80
2022-08-28T12:17:22.105Z,7.20
2022-08-28T12:20:12.147Z,7.70
2022-08-28T12:22:54.871Z,7.30
2022-08-28T12:25:43.466Z,8.50
2022-08-28T12:28:27.640Z,6.90
2022-08-28T12:31:06.091Z,8.20
2022-08-28T12:33:47.910Z,7.60
2022-08-28T12:36:19.117Z,8.20
2022-08-28T12:38:53.358Z,7.90
2022-08-28T12:41:24.465Z,8.40
2022-08-28T12:43:58.364Z,8.00
2022-08-28T12:46:41.362Z,8.10
2022-08-28T12:49:34.125Z,8.00
2022-08-28T12:52:16.640Z,8.40
2022-08-28T12:54:47.216Z,8.10
2022-08-28T12:57:18.700Z,8.30
2022-08-28T12:59:53.780Z,8.60
2022-08-28T13:02:30.386Z,10.00
2022-08-28T13:05:05.817Z,8.20
2022-08-28T13:07:39.457Z,8.50
2022-08-28T13:10:24.683Z,8.80
2022-08-28T13:13:05.597Z,9.30
2022-08-28T13:15:58.083Z,8.90
2022-08-28T13:18:45.579Z,9.20
2022-08-28T13:21:32.613Z,9.60
2022-08-28T13:24:26.139Z,10.00
2022-08-28T13:27:16.116Z,10.00
2022-08-28T13:30:21.287Z,10.20
2022-08-28T13:33:01.240Z,10.70
2022-08-28T13:35:32.474Z,11.20
2022-08-28T13:38:08.321Z,11.80
2022-08-28T13:40:59.180Z,11.90
2022-08-28T13:43:30.734Z,11.40
2022-08-28T13:45:58.079Z,10.70
2022-08-28T13:48:27.509Z,12.80
2022-08-28T13:51:03.156Z,11.80
2022-08-28T13:53:32.084Z,12.30
2022-08-28T13:56:00.244Z,11.80
2022-08-28T13:58:28.310Z,11.90
2022-08-28T14:00:55.557Z,11.30
2022-08-28T14:03:38.499Z,10.60
2022-08-28T14:06:12.835Z,10.80
2022-08-28T14:08:41.625Z,9.40
2022-08-28T14:11:08.874Z,9.30
2022-08-28T14:13:40.705Z,9.20
2022-08-28T14:16:13.887Z,9.00
2022-08-28T14:18:41.034Z,8.60
2022-08-28T14:21:07.725Z,10.00
2022-08-28T14:23:34.426Z,9.20
2022-08-28T14:26:00.997Z,10.00
2022-08-28T14:28:27.495Z,9.20
2022-08-28T14:30:54.073Z,9.20
2022-08-28T14:33:21.111Z,8.80
2022-08-28T14:35:48.973Z,9.80
2022-08-28T14:38:16.271Z,9.80
2022-08-28T14:40:44.787Z,10.70
2022-08-28T14:43:13.438Z,9.70
2022-08-28T14:45:46.608Z,9.50
2022-08-28T14:48:14.762Z,10.30
2022-08-28T14:50:43.991Z,9.70
2022-08-28T14:53:11.912Z,9.40
2022-08-28T14:55:44.756Z,9.20
2022-08-28T14:58:12.626Z,9.70
2022-08-28T15:00:47.623Z,9.00
2022-08-28T15:03:15.220Z,9.40
2022-08-28T15:05:42.426Z,9.20
2022-08-28T15:08:12.168Z,9.90
2022-08-28T15:10:42.157Z,9.70
2022-08-28T15:13:11.170Z,9.00
2022-08-28T15:15:41.294Z,9.00
2022-08-28T15:18:10.278Z,9.20
2022-08-28T15:20:46.717Z,8.70
2022-08-28T15:23:15.451Z,8.00
2022-08-28T15:25:42.584Z,6.40
2022-08-28T15:28:09.640Z,4.70
2022-08-28T15:30:36.944Z,4.70
2022-08-28T15:33:04.193Z,6.00
2022-08-28T15:35:30.874Z,5.80
2022-08-28T15:37:57.601Z,5.20
2022-08-28T15:40:42.926Z,5.20
2022-08-28T15:43:09.689Z,4.10
2022-08-28T15:45:39.204Z,3.40
2022-08-28T15:48:07.381Z,2.50
2022-08-28T15:50:34.040Z,1.90
2022-08-28T15:53:01.760Z,2.80
2022-08-28T15:55:28.314Z,2.20
2022-08-28T15:57:55.108Z,2.00
2022-08-28T16:00:22.736Z,2.20
2022-08-28T16:02:49.373Z,3.20
2022-08-28T16:05:16.309Z,3.30
2022-08-28T16:08:04.271Z,3.30
2022-08-28T16:10:31.313Z,3.50
2022-08-28T16:12:57.890Z,3.70
2022-08-28T16:15:24.676Z,4.10
2022-08-28T16:17:51.197Z,3.90
2022-08-28T16:20:17.835Z,4.00
2022-08-28T16:22:44.321Z,4.10
2022-08-28T16:25:12.769Z,3.90
2022-08-28T16:27:39.497Z,4.20
2022-08-28T16:30:08.304Z,4.20
2022-08-28T16:32:42.472Z,3.80
2022-08-28T16:35:14.869Z,4.00
2022-08-28T16:37:42.479Z,4.00
2022-08-28T16:40:11.165Z,4.20
2022-08-28T16:42:38.574Z,4.50
2022-08-28T16:45:07.721Z,4.10
2022-08-28T16:47:36.532Z,3.40
2022-08-28T16:50:12.235Z,3.70
2022-08-28T16:52:39.726Z,4.00
2022-08-28T16:55:09.947Z,4.80
2022-08-28T16:57:37.449Z,5.10
2022-08-28T17:00:09.869Z,4.70
2022-08-28T17:02:36.522Z,4.50
2022-08-28T17:05:04.460Z,4.40
2022-08-28T17:07:31.118Z,5.00
2022-08-28T17:09:57.626Z,5.60
2022-08-28T17:12:24.308Z,5.30
2022-08-28T17:14:51.045Z,4.40
2022-08-28T17:17:17.749Z,3.40
2022-08-28T17:19:44.385Z,4.20
2022-08-28T17:22:29.492Z,3.40
2022-08-28T17:24:56.012Z,3.50
2022-08-28T17:27:23.482Z,3.50
2022-08-28T17:29:50.398Z,3.70
2022-08-28T17:32:17.638Z,3.50
2022-08-28T17:34:44.449Z,3.20
2022-08-28T17:37:11.356Z,3.70
2022-08-28T17:39:38.175Z,3.70
2022-08-28T17:42:04.997Z,4.10
2022-08-28T17:44:31.475Z,3.50
2022-08-28T17:46:58.015Z,4.00
2022-08-28T17:49:24.681Z,3.80
2022-08-28T17:51:51.201Z,4.00
2022-08-28T17:54:21.726Z,4.10
2022-08-28T17:56:50.316Z,3.80
2022-08-28T17:59:18.292Z,4.00
2022-08-28T18:01:46.822Z,4.10
2022-08-28T18:04:21.651Z,4.10
2022-08-28T18:06:52.705Z,4.50
2022-08-28T18:09:20.558Z,4.60
2022-08-28T18:11:47.787Z,5.00
2022-08-28T18:14:14.390Z,4.80
2022-08-28T18:16:41.134Z,5.20
2022-08-28T18:19:10.497Z,4.80
2022-08-28T18:21:38.705Z,4.20
2022-08-28T18:24:06.329Z,4.80
2022-08-28T18:26:32.910Z,4.80
2022-08-28T18:28:59.595Z,4.70
2022-08-28T18:31:26.513Z,4.50
2022-08-28T18:33:54.337Z,4.60
2022-08-28T18:36:22.996Z,5.00
2022-08-28T18:38:51.335Z,3.80
2022-08-28T18:41:21.761Z,4.30
2022-08-28T18:43:56.182Z,4.50
2022-08-28T18:46:25.250Z,4.40
2022-08-28T18:48:55.314Z,4.40
2022-08-28T18:51:21.911Z,4.80
2022-08-28T18:53:48.886Z,4.10
2022-08-28T18:56:16.428Z,4.60
2022-08-28T18:58:43.342Z,5.20
2022-08-28T19:01:10.450Z,5.30
2022-08-28T19:03:37.500Z,5.30
2022-08-28T19:06:06.235Z,5.30
2022-08-28T19:08:33.280Z,5.40
2022-08-28T19:10:59.810Z,5.10
2022-08-28T19:13:27.870Z,5.40
2022-08-28T19:15:54.538Z,5.40
2022-08-28T19:18:21.645Z,5.40
2022-08-28T19:20:48.737Z,5.30
2022-08-28T19:23:17.749Z,6.10
2022-08-28T19:25:44.990Z,6.10
2022-08-28T19:28:11.595Z,5.50
2022-08-28T19:30:38.223Z,6.00
2022-08-28T19:33:05.973Z,5.80
2022-08-28T19:35:33.781Z,5.50
2022-08-28T19:38:00.662Z,5.70
2022-08-28T19:40:27.546Z,5.50
2022-08-28T19:42:54.364Z,5.60
2022-08-28T19:45:21.447Z,5.40
2022-08-28T19:47:48.230Z,5.90
2022-08-28T19:50:15.839Z,6.10
2022-08-28T19:52:45.507Z,5.60
2022-08-28T19:55:19.958Z,6.30
2022-08-28T19:57:48.412Z,6.90
2022-08-28T20:00:18.626Z,5.70
2022-08-28T20:02:46.382Z,6.80
2022-08-28T20:05:13.079Z,6.10
2022-08-28T20:07:40.180Z,5.90
2022-08-28T20:10:07.804Z,6.10
2022-08-28T20:12:34.637Z,6.50
2022-08-28T20:15:03.749Z,6.60
2022-08-28T20:17:30.689Z,6.60
2022-08-28T20:20:02.412Z,6.70
2022-08-28T20:22:31.834Z,7.50
2022-08-28T20:24:59.468Z,6.20
2022-08-28T20:27:26.341Z,6.30
2022-08-28T20:29:53.007Z,5.90
2022-08-28T20:32:20.226Z,6.60
2022-08-28T20:34:46.740Z,6.80
2022-08-28T20:37:13.729Z,5.60
2022-08-28T20:39:41.653Z,6.50
2022-08-28T20:42:10.360Z,6.30
2022-08-28T20:44:36.892Z,6.70
2022-08-28T20:47:04.690Z,6.20
2022-08-28T20:49:31.498Z,5.70
2022-08-28T20:52:00.776Z,6.40
2022-08-28T20:54:34.687Z,6.60
2022-08-28T20:57:06.047Z,6.20
2022-08-28T20:59:40.017Z,6.40
2022-08-28T21:02:15.069Z,6.90
2022-08-28T21:04:44.605Z,6.60
2022-08-28T21:07:14.479Z,6.70
2022-08-28T21:10:04.311Z,6.70
2022-08-28T21:12:27.805Z,7.00
2022-08-28T21:14:54.393Z,7.20
2022-08-28T21:17:28.989Z,7.50
2022-08-28T21:20:04.656Z,7.60
2022-08-28T21:22:32.772Z,7.80
2022-08-28T21:24:59.807Z,7.80
2022-08-28T21:27:26.918Z,8.10
2022-08-28T21:29:59.876Z,8.20
2022-08-28T21:32:29.366Z,8.90
2022-08-28T21:34:56.517Z,9.60
2022-08-28T21:37:23.612Z,8.30
2022-08-28T21:39:50.770Z,8.80
2022-08-28T21:42:17.491Z,9.30
2022-08-28T21:44:46.108Z,9.60
2022-08-28T21:47:23.210Z,9.80
2022-08-28T21:49:52.628Z,9.50
2022-08-28T21:52:21.918Z,10.30
2022-08-28T21:54:49.116Z,10.00
2022-08-28T21:57:17.651Z,10.00
2022-08-28T21:59:44.334Z,10.20
2022-08-28T22:02:10.950Z,9.80
2022-08-28T22:04:37.821Z,10.90
2022-08-28T22:07:04.554Z,9.50
2022-08-28T22:09:31.186Z,10.60
2022-08-28T22:11:57.716Z,10.20
2022-08-28T22:14:25.221Z,10.20
2022-08-28T22:16:51.977Z,9.70
2022-08-28T22:19:18.588Z,8.30
2022-08-28T22:22:03.776Z,8.50
2022-08-28T22:24:30.381Z,7.80
2022-08-28T22:26:57.622Z,7.00
2022-08-28T22:29:25.135Z,6.60
2022-08-28T22:31:52.485Z,5.70
2022-08-28T22:34:19.177Z,5.60
2022-08-28T22:36:45.706Z,5.40
2022-08-28T22:39:12.249Z,4.70
2022-08-28T22:41:38.850Z,3.60
2022-08-28T22:44:05.463Z,3.30
2022-08-28T22:46:32.090Z,3.00
2022-08-28T22:48:59.239Z,3.40
2022-08-28T22:51:25.776Z,2.70
2022-08-28T22:53:52.540Z,3.20
2022-08-28T22:56:19.231Z,4.00
2022-08-28T22:58:46.051Z,4.20
2022-08-28T23:01:21.410Z,4.30
2022-08-28T23:03:50.099Z,4.90
2022-08-28T23:06:17.393Z,5.50
2022-08-28T23:08:46.922Z,6.20
2022-08-28T23:11:13.747Z,5.80
2022-08-28T23:13:41.067Z,5.80
2022-08-28T23:16:08.307Z,5.90
2022-08-28T23:18:57.555Z,6.20
2022-08-28T23:21:26.399Z,6.00
2022-08-28T23:23:53.334Z,5.90
2022-08-28T23:26:19.989Z,5.60
2022-08-28T23:28:46.765Z,5.30
2022-08-28T23:31:13.370Z,6.00
2022-08-28T23:33:40.303Z,5.20
2022-08-28T23:36:08.150Z,5.30
2022-08-28T23:38:40.662Z,5.40
2022-08-28T23:41:11.405Z,5.20
2022-08-28T23:43:38.428Z,5.00
2022-08-28T23:46:06.095Z,4.80
2022-08-28T23:48:33.062Z,4.30
2022-08-28T23:50:59.724Z,3.90
2022-08-28T23:53:26.927Z,4.40
2022-08-28T23:55:54.031Z,3.90
2022-08-28T23:58:22.395Z,3.60
